sensor_id;sensor_type;location;lat;lon;timestamp;P1;durP1;ratioP1;P2;durP2;ratioP2
40244;SDS011;25963;42.694;23.600;2023-04-30T00:01:36;9.55;;;6.13;;
40244;SDS011;25963;42.694;23.600;2023-04-30T00:04:02;10.88;;;6.55;;
40244;SDS011;25963;42.694;23.600;2023-04-30T00:06:28;12.10;;;6.55;;
40244;SDS011;25963;42.694;23.600;2023-04-30T00:08:53;8.38;;;6.25;;
40244;SDS011;25963;42.694;23.600;2023-04-30T00:11:18;12.30;;;7.90;;
40244;SDS011;25963;42.694;23.600;2023-04-30T00:13:44;9.50;;;6.10;;
40244;SDS011;25963;42.694;23.600;2023-04-30T00:16:10;7.47;;;5.95;;
40244;SDS011;25963;42.694;23.600;2023-04-30T00:18:35;7.18;;;5.72;;
40244;SDS011;25963;42.694;23.600;2023-04-30T00:21:01;11.23;;;6.75;;
40244;SDS011;25963;42.694;23.600;2023-04-30T00:23:27;7.18;;;5.70;;
40244;SDS011;25963;42.694;23.600;2023-04-30T00:25:52;10.73;;;5.40;;
40244;SDS011;25963;42.694;23.600;2023-04-30T00:28:18;7.00;;;5.40;;
40244;SDS011;25963;42.694;23.600;2023-04-30T00:30:43;10.15;;;5.78;;
40244;SDS011;25963;42.694;23.600;2023-04-30T00:33:09;8.88;;;5.93;;
40244;SDS011;25963;42.694;23.600;2023-04-30T00:35:35;8.35;;;5.97;;
40244;SDS011;25963;42.694;23.600;2023-04-30T00:38:00;7.57;;;5.97;;
40244;SDS011;25963;42.694;23.600;2023-04-30T00:40:26;9.13;;;5.43;;
40244;SDS011;25963;42.694;23.600;2023-04-30T00:42:51;11.15;;;6.03;;
40244;SDS011;25963;42.694;23.600;2023-04-30T00:45:19;8.80;;;5.55;;
40244;SDS011;25963;42.694;23.600;2023-04-30T00:47:48;6.53;;;4.95;;
40244;SDS011;25963;42.694;23.600;2023-04-30T00:50:14;7.13;;;5.40;;
40244;SDS011;25963;42.694;23.600;2023-04-30T00:52:43;6.88;;;5.55;;
40244;SDS011;25963;42.694;23.600;2023-04-30T00:55:10;15.00;;;10.63;;
40244;SDS011;25963;42.694;23.600;2023-04-30T00:57:37;14.90;;;10.85;;
40244;SDS011;25963;42.694;23.600;2023-04-30T01:00:03;9.40;;;6.93;;
40244;SDS011;25963;42.694;23.600;2023-04-30T01:02:31;11.55;;;9.18;;
40244;SDS011;25963;42.694;23.600;2023-04-30T01:04:57;8.18;;;6.78;;
40244;SDS011;25963;42.694;23.600;2023-04-30T01:07:23;10.90;;;6.43;;
40244;SDS011;25963;42.694;23.600;2023-04-30T01:09:52;9.32;;;5.85;;
40244;SDS011;25963;42.694;23.600;2023-04-30T01:18:06;8.80;;;5.82;;
40244;SDS011;25963;42.694;23.600;2023-04-30T01:20:38;9.15;;;6.80;;
40244;SDS011;25963;42.694;23.600;2023-04-30T01:23:23;10.82;;;7.05;;
40244;SDS011;25963;42.694;23.600;2023-04-30T01:26:11;9.80;;;6.78;;
40244;SDS011;25963;42.694;23.600;2023-04-30T01:28:49;10.93;;;6.43;;
40244;SDS011;25963;42.694;23.600;2023-04-30T01:31:18;10.15;;;7.60;;
40244;SDS011;25963;42.694;23.600;2023-04-30T01:33:44;10.13;;;7.43;;
40244;SDS011;25963;42.694;23.600;2023-04-30T01:36:16;14.07;;;10.25;;
40244;SDS011;25963;42.694;23.600;2023-04-30T01:39:05;13.02;;;8.35;;
40244;SDS011;25963;42.694;23.600;2023-04-30T01:41:43;10.40;;;6.18;;
40244;SDS011;25963;42.694;23.600;2023-04-30T01:58:06;10.80;;;5.80;;
40244;SDS011;25963;42.694;23.600;2023-04-30T02:00:34;8.40;;;5.88;;
40244;SDS011;25963;42.694;23.600;2023-04-30T02:03:00;9.88;;;5.50;;
40244;SDS011;25963;42.694;23.600;2023-04-30T02:05:26;10.00;;;5.75;;
40244;SDS011;25963;42.694;23.600;2023-04-30T02:07:51;9.82;;;5.53;;
40244;SDS011;25963;42.694;23.600;2023-04-30T02:10:18;7.20;;;5.70;;
40244;SDS011;25963;42.694;23.600;2023-04-30T02:12:45;7.70;;;5.50;;
40244;SDS011;25963;42.694;23.600;2023-04-30T02:15:11;7.90;;;5.65;;
40244;SDS011;25963;42.694;23.600;2023-04-30T02:17:36;7.40;;;5.85;;
40244;SDS011;25963;42.694;23.600;2023-04-30T02:20:02;7.32;;;5.03;;
40244;SDS011;25963;42.694;23.600;2023-04-30T02:22:28;9.00;;;5.72;;
40244;SDS011;25963;42.694;23.600;2023-04-30T02:24:54;9.10;;;5.38;;
40244;SDS011;25963;42.694;23.600;2023-04-30T02:27:20;9.07;;;5.97;;
40244;SDS011;25963;42.694;23.600;2023-04-30T02:29:47;9.40;;;6.53;;
40244;SDS011;25963;42.694;23.600;2023-04-30T02:32:13;7.22;;;4.82;;
40244;SDS011;25963;42.694;23.600;2023-04-30T02:34:38;12.10;;;5.82;;
40244;SDS011;25963;42.694;23.600;2023-04-30T02:37:04;46.13;;;22.38;;
40244;SDS011;25963;42.694;23.600;2023-04-30T02:39:30;23.23;;;13.18;;
40244;SDS011;25963;42.694;23.600;2023-04-30T02:41:56;24.80;;;10.98;;
40244;SDS011;25963;42.694;23.600;2023-04-30T02:44:22;57.03;;;23.15;;
40244;SDS011;25963;42.694;23.600;2023-04-30T02:46:48;46.40;;;19.65;;
40244;SDS011;25963;42.694;23.600;2023-04-30T02:49:13;20.90;;;10.32;;
40244;SDS011;25963;42.694;23.600;2023-04-30T02:51:39;18.05;;;9.30;;
40244;SDS011;25963;42.694;23.600;2023-04-30T02:54:04;8.90;;;5.43;;
40244;SDS011;25963;42.694;23.600;2023-04-30T02:56:30;6.93;;;4.93;;
40244;SDS011;25963;42.694;23.600;2023-04-30T03:01:44;8.52;;;5.18;;
40244;SDS011;25963;42.694;23.600;2023-04-30T03:04:09;8.32;;;6.55;;
40244;SDS011;25963;42.694;23.600;2023-04-30T03:06:35;11.05;;;5.70;;
40244;SDS011;25963;42.694;23.600;2023-04-30T03:09:00;10.20;;;5.90;;
40244;SDS011;25963;42.694;23.600;2023-04-30T03:11:26;11.52;;;6.82;;
40244;SDS011;25963;42.694;23.600;2023-04-30T03:13:51;7.13;;;5.65;;
40244;SDS011;25963;42.694;23.600;2023-04-30T03:16:17;10.98;;;5.80;;
40244;SDS011;25963;42.694;23.600;2023-04-30T03:18:44;8.63;;;5.82;;
40244;SDS011;25963;42.694;23.600;2023-04-30T03:21:13;9.65;;;5.38;;
40244;SDS011;25963;42.694;23.600;2023-04-30T03:23:39;12.23;;;7.13;;
40244;SDS011;25963;42.694;23.600;2023-04-30T03:26:05;11.00;;;6.45;;
40244;SDS011;25963;42.694;23.600;2023-04-30T03:28:30;7.78;;;5.93;;
40244;SDS011;25963;42.694;23.600;2023-04-30T03:30:56;10.30;;;6.45;;
40244;SDS011;25963;42.694;23.600;2023-04-30T03:33:23;10.07;;;6.57;;
40244;SDS011;25963;42.694;23.600;2023-04-30T03:35:48;13.30;;;7.28;;
40244;SDS011;25963;42.694;23.600;2023-04-30T03:38:14;13.77;;;7.70;;
40244;SDS011;25963;42.694;23.600;2023-04-30T03:40:40;15.60;;;8.95;;
40244;SDS011;25963;42.694;23.600;2023-04-30T03:43:05;17.23;;;9.68;;
40244;SDS011;25963;42.694;23.600;2023-04-30T03:45:30;12.20;;;7.82;;
40244;SDS011;25963;42.694;23.600;2023-04-30T03:47:56;13.05;;;7.35;;
40244;SDS011;25963;42.694;23.600;2023-04-30T03:50:21;10.02;;;7.43;;
40244;SDS011;25963;42.694;23.600;2023-04-30T03:52:47;14.05;;;7.13;;
40244;SDS011;25963;42.694;23.600;2023-04-30T03:55:12;11.30;;;7.57;;
40244;SDS011;25963;42.694;23.600;2023-04-30T03:57:38;13.68;;;8.43;;
40244;SDS011;25963;42.694;23.600;2023-04-30T04:00:05;14.27;;;9.82;;
40244;SDS011;25963;42.694;23.600;2023-04-30T04:02:34;14.50;;;8.38;;
40244;SDS011;25963;42.694;23.600;2023-04-30T04:05:01;13.23;;;8.48;;
40244;SDS011;25963;42.694;23.600;2023-04-30T04:07:27;12.18;;;9.32;;
40244;SDS011;25963;42.694;23.600;2023-04-30T04:09:52;14.50;;;9.35;;
40244;SDS011;25963;42.694;23.600;2023-04-30T04:12:18;14.95;;;8.18;;
40244;SDS011;25963;42.694;23.600;2023-04-30T04:14:43;12.48;;;8.25;;
40244;SDS011;25963;42.694;23.600;2023-04-30T04:17:09;11.23;;;7.63;;
40244;SDS011;25963;42.694;23.600;2023-04-30T04:19:34;17.95;;;9.40;;
40244;SDS011;25963;42.694;23.600;2023-04-30T04:22:00;28.20;;;13.40;;
40244;SDS011;25963;42.694;23.600;2023-04-30T04:24:25;49.75;;;19.08;;
40244;SDS011;25963;42.694;23.600;2023-04-30T04:26:51;23.23;;;12.68;;
40244;SDS011;25963;42.694;23.600;2023-04-30T04:29:17;27.23;;;16.50;;
40244;SDS011;25963;42.694;23.600;2023-04-30T04:31:42;25.33;;;14.00;;
40244;SDS011;25963;42.694;23.600;2023-04-30T04:34:08;24.33;;;14.23;;
40244;SDS011;25963;42.694;23.600;2023-04-30T04:36:34;44.15;;;23.92;;
40244;SDS011;25963;42.694;23.600;2023-04-30T04:38:59;54.25;;;27.83;;
40244;SDS011;25963;42.694;23.600;2023-04-30T04:41:26;34.53;;;20.95;;
40244;SDS011;25963;42.694;23.600;2023-04-30T04:44:05;52.00;;;23.98;;
40244;SDS011;25963;42.694;23.600;2023-04-30T04:46:31;26.17;;;15.05;;
40244;SDS011;25963;42.694;23.600;2023-04-30T04:48:56;33.00;;;16.90;;
40244;SDS011;25963;42.694;23.600;2023-04-30T04:51:22;10.57;;;7.03;;
40244;SDS011;25963;42.694;23.600;2023-04-30T04:53:48;12.38;;;7.30;;
40244;SDS011;25963;42.694;23.600;2023-04-30T04:56:14;10.52;;;7.03;;
40244;SDS011;25963;42.694;23.600;2023-04-30T04:58:40;21.83;;;11.85;;
40244;SDS011;25963;42.694;23.600;2023-04-30T05:01:06;10.73;;;6.75;;
40244;SDS011;25963;42.694;23.600;2023-04-30T05:03:33;9.68;;;6.78;;
40244;SDS011;25963;42.694;23.600;2023-04-30T05:06:01;8.43;;;6.28;;
40244;SDS011;25963;42.694;23.600;2023-04-30T05:08:27;9.82;;;7.47;;
40244;SDS011;25963;42.694;23.600;2023-04-30T05:10:52;9.73;;;7.20;;
40244;SDS011;25963;42.694;23.600;2023-04-30T05:13:17;13.75;;;8.60;;
40244;SDS011;25963;42.694;23.600;2023-04-30T05:15:43;9.45;;;6.95;;
40244;SDS011;25963;42.694;23.600;2023-04-30T05:18:08;9.70;;;7.55;;
40244;SDS011;25963;42.694;23.600;2023-04-30T05:20:34;9.52;;;6.30;;
40244;SDS011;25963;42.694;23.600;2023-04-30T05:22:59;10.60;;;7.07;;
40244;SDS011;25963;42.694;23.600;2023-04-30T05:25:25;8.80;;;6.55;;
40244;SDS011;25963;42.694;23.600;2023-04-30T05:27:50;18.70;;;11.90;;
40244;SDS011;25963;42.694;23.600;2023-04-30T05:30:16;9.93;;;7.10;;
40244;SDS011;25963;42.694;23.600;2023-04-30T05:32:41;8.23;;;6.47;;
40244;SDS011;25963;42.694;23.600;2023-04-30T05:35:07;13.48;;;9.05;;
40244;SDS011;25963;42.694;23.600;2023-04-30T05:37:33;18.23;;;9.90;;
40244;SDS011;25963;42.694;23.600;2023-04-30T05:39:58;14.27;;;10.07;;
40244;SDS011;25963;42.694;23.600;2023-04-30T05:42:24;11.40;;;8.13;;
40244;SDS011;25963;42.694;23.600;2023-04-30T05:44:49;15.50;;;10.48;;
40244;SDS011;25963;42.694;23.600;2023-04-30T05:47:14;24.20;;;15.45;;
40244;SDS011;25963;42.694;23.600;2023-04-30T05:49:40;19.35;;;12.75;;
40244;SDS011;25963;42.694;23.600;2023-04-30T05:52:05;20.77;;;12.18;;
40244;SDS011;25963;42.694;23.600;2023-04-30T05:54:31;33.83;;;19.33;;
40244;SDS011;25963;42.694;23.600;2023-04-30T05:56:57;18.23;;;14.82;;
40244;SDS011;25963;42.694;23.600;2023-04-30T05:59:22;33.35;;;22.90;;
40244;SDS011;25963;42.694;23.600;2023-04-30T06:01:48;20.60;;;13.15;;
40244;SDS011;25963;42.694;23.600;2023-04-30T06:04:13;8.52;;;7.05;;
40244;SDS011;25963;42.694;23.600;2023-04-30T06:06:38;12.02;;;8.35;;
40244;SDS011;25963;42.694;23.600;2023-04-30T06:09:04;29.55;;;20.13;;
40244;SDS011;25963;42.694;23.600;2023-04-30T06:11:30;12.68;;;9.60;;
40244;SDS011;25963;42.694;23.600;2023-04-30T06:13:55;13.60;;;10.63;;
40244;SDS011;25963;42.694;23.600;2023-04-30T06:16:30;16.00;;;11.90;;
40244;SDS011;25963;42.694;23.600;2023-04-30T06:18:56;16.60;;;8.65;;
40244;SDS011;25963;42.694;23.600;2023-04-30T06:21:21;14.98;;;9.98;;
40244;SDS011;25963;42.694;23.600;2023-04-30T06:23:50;41.88;;;18.42;;
40244;SDS011;25963;42.694;23.600;2023-04-30T06:26:16;18.38;;;12.05;;
40244;SDS011;25963;42.694;23.600;2023-04-30T06:28:43;19.45;;;12.88;;
40244;SDS011;25963;42.694;23.600;2023-04-30T06:31:10;13.05;;;9.90;;
40244;SDS011;25963;42.694;23.600;2023-04-30T06:33:35;16.13;;;10.82;;
40244;SDS011;25963;42.694;23.600;2023-04-30T06:36:01;119.47;;;48.97;;
40244;SDS011;25963;42.694;23.600;2023-04-30T06:38:26;53.25;;;26.10;;
40244;SDS011;25963;42.694;23.600;2023-04-30T06:40:52;29.17;;;15.80;;
40244;SDS011;25963;42.694;23.600;2023-04-30T06:43:17;17.05;;;12.30;;
40244;SDS011;25963;42.694;23.600;2023-04-30T06:45:43;22.15;;;14.95;;
40244;SDS011;25963;42.694;23.600;2023-04-30T06:48:08;29.48;;;17.48;;
40244;SDS011;25963;42.694;23.600;2023-04-30T06:50:34;25.20;;;15.18;;
40244;SDS011;25963;42.694;23.600;2023-04-30T06:53:07;24.55;;;15.52;;
40244;SDS011;25963;42.694;23.600;2023-04-30T06:55:33;28.65;;;17.33;;
40244;SDS011;25963;42.694;23.600;2023-04-30T06:57:58;19.38;;;12.20;;
40244;SDS011;25963;42.694;23.600;2023-04-30T07:00:24;17.17;;;11.13;;
40244;SDS011;25963;42.694;23.600;2023-04-30T07:02:50;12.75;;;9.77;;
40244;SDS011;25963;42.694;23.600;2023-04-30T07:05:16;15.30;;;10.80;;
40244;SDS011;25963;42.694;23.600;2023-04-30T07:07:41;12.45;;;8.00;;
40244;SDS011;25963;42.694;23.600;2023-04-30T07:10:07;11.90;;;8.35;;
40244;SDS011;25963;42.694;23.600;2023-04-30T07:12:32;11.13;;;9.02;;
40244;SDS011;25963;42.694;23.600;2023-04-30T07:14:58;12.02;;;8.07;;
40244;SDS011;25963;42.694;23.600;2023-04-30T07:17:23;20.52;;;11.38;;
40244;SDS011;25963;42.694;23.600;2023-04-30T07:19:49;14.18;;;8.50;;
40244;SDS011;25963;42.694;23.600;2023-04-30T07:22:14;11.23;;;8.65;;
40244;SDS011;25963;42.694;23.600;2023-04-30T07:24:40;11.38;;;7.88;;
40244;SDS011;25963;42.694;23.600;2023-04-30T07:27:05;18.95;;;13.15;;
40244;SDS011;25963;42.694;23.600;2023-04-30T07:29:31;15.50;;;10.48;;
40244;SDS011;25963;42.694;23.600;2023-04-30T07:31:57;15.05;;;10.80;;
40244;SDS011;25963;42.694;23.600;2023-04-30T07:34:23;17.27;;;10.90;;
40244;SDS011;25963;42.694;23.600;2023-04-30T07:36:49;19.02;;;12.85;;
40244;SDS011;25963;42.694;23.600;2023-04-30T07:39:14;17.45;;;11.23;;
40244;SDS011;25963;42.694;23.600;2023-04-30T07:41:40;10.90;;;7.97;;
40244;SDS011;25963;42.694;23.600;2023-04-30T07:44:06;13.27;;;9.88;;
40244;SDS011;25963;42.694;23.600;2023-04-30T07:46:31;16.13;;;10.00;;
40244;SDS011;25963;42.694;23.600;2023-04-30T07:48:57;16.17;;;11.23;;
40244;SDS011;25963;42.694;23.600;2023-04-30T07:51:23;17.35;;;11.63;;
40244;SDS011;25963;42.694;23.600;2023-04-30T07:53:48;21.30;;;11.35;;
40244;SDS011;25963;42.694;23.600;2023-04-30T07:56:14;15.43;;;11.38;;
40244;SDS011;25963;42.694;23.600;2023-04-30T07:58:39;12.30;;;9.48;;
40244;SDS011;25963;42.694;23.600;2023-04-30T08:01:05;22.05;;;12.02;;
40244;SDS011;25963;42.694;23.600;2023-04-30T08:03:31;21.25;;;12.82;;
40244;SDS011;25963;42.694;23.600;2023-04-30T08:05:56;17.23;;;10.70;;
40244;SDS011;25963;42.694;23.600;2023-04-30T08:08:22;18.27;;;10.63;;
40244;SDS011;25963;42.694;23.600;2023-04-30T08:10:47;14.27;;;8.45;;
40244;SDS011;25963;42.694;23.600;2023-04-30T08:13:13;15.40;;;9.80;;
40244;SDS011;25963;42.694;23.600;2023-04-30T08:15:38;17.10;;;9.30;;
40244;SDS011;25963;42.694;23.600;2023-04-30T08:18:04;15.40;;;10.32;;
40244;SDS011;25963;42.694;23.600;2023-04-30T08:20:33;10.10;;;7.30;;
40244;SDS011;25963;42.694;23.600;2023-04-30T08:22:58;19.67;;;9.75;;
40244;SDS011;25963;42.694;23.600;2023-04-30T08:25:24;12.93;;;8.63;;
40244;SDS011;25963;42.694;23.600;2023-04-30T08:27:49;10.40;;;7.53;;
40244;SDS011;25963;42.694;23.600;2023-04-30T08:30:15;15.38;;;8.15;;
40244;SDS011;25963;42.694;23.600;2023-04-30T08:32:40;15.10;;;10.98;;
40244;SDS011;25963;42.694;23.600;2023-04-30T08:35:06;18.42;;;9.50;;
40244;SDS011;25963;42.694;23.600;2023-04-30T08:37:33;12.13;;;9.02;;
40244;SDS011;25963;42.694;23.600;2023-04-30T08:39:58;15.75;;;9.18;;
40244;SDS011;25963;42.694;23.600;2023-04-30T08:42:25;13.68;;;8.30;;
40244;SDS011;25963;42.694;23.600;2023-04-30T08:44:55;12.57;;;9.10;;
40244;SDS011;25963;42.694;23.600;2023-04-30T08:47:22;16.90;;;10.98;;
40244;SDS011;25963;42.694;23.600;2023-04-30T08:49:48;15.10;;;10.43;;
40244;SDS011;25963;42.694;23.600;2023-04-30T08:52:16;16.08;;;10.88;;
40244;SDS011;25963;42.694;23.600;2023-04-30T08:54:43;24.77;;;12.73;;
40244;SDS011;25963;42.694;23.600;2023-04-30T08:57:08;11.77;;;8.02;;
40244;SDS011;25963;42.694;23.600;2023-04-30T08:59:34;15.70;;;8.50;;
40244;SDS011;25963;42.694;23.600;2023-04-30T09:02:00;18.85;;;9.90;;
40244;SDS011;25963;42.694;23.600;2023-04-30T09:04:26;18.80;;;8.98;;
40244;SDS011;25963;42.694;23.600;2023-04-30T09:06:52;15.18;;;9.60;;
40244;SDS011;25963;42.694;23.600;2023-04-30T09:09:26;26.30;;;12.35;;
40244;SDS011;25963;42.694;23.600;2023-04-30T09:12:09;9.60;;;6.53;;
40244;SDS011;25963;42.694;23.600;2023-04-30T09:14:39;11.00;;;6.35;;
40244;SDS011;25963;42.694;23.600;2023-04-30T09:17:05;12.70;;;7.07;;
40244;SDS011;25963;42.694;23.600;2023-04-30T09:19:33;18.20;;;9.98;;
40244;SDS011;25963;42.694;23.600;2023-04-30T09:21:58;12.75;;;7.93;;
40244;SDS011;25963;42.694;23.600;2023-04-30T09:24:45;9.40;;;5.88;;
40244;SDS011;25963;42.694;23.600;2023-04-30T09:27:18;12.95;;;7.55;;
40244;SDS011;25963;42.694;23.600;2023-04-30T09:29:45;16.75;;;7.75;;
40244;SDS011;25963;42.694;23.600;2023-04-30T09:32:11;17.15;;;9.18;;
40244;SDS011;25963;42.694;23.600;2023-04-30T09:34:37;8.68;;;6.78;;
40244;SDS011;25963;42.694;23.600;2023-04-30T09:37:03;11.68;;;6.88;;
40244;SDS011;25963;42.694;23.600;2023-04-30T09:39:29;14.27;;;8.65;;
40244;SDS011;25963;42.694;23.600;2023-04-30T09:42:08;9.85;;;6.15;;
40244;SDS011;25963;42.694;23.600;2023-04-30T09:44:38;7.80;;;6.13;;
40244;SDS011;25963;42.694;23.600;2023-04-30T09:47:04;7.25;;;5.18;;
40244;SDS011;25963;42.694;23.600;2023-04-30T09:49:36;8.55;;;5.20;;
40244;SDS011;25963;42.694;23.600;2023-04-30T09:52:02;10.82;;;8.10;;
40244;SDS011;25963;42.694;23.600;2023-04-30T09:54:29;4.90;;;4.47;;
40244;SDS011;25963;42.694;23.600;2023-04-30T09:57:00;7.35;;;5.35;;
40244;SDS011;25963;42.694;23.600;2023-04-30T09:59:27;7.70;;;6.68;;
40244;SDS011;25963;42.694;23.600;2023-04-30T10:02:04;5.63;;;4.28;;
40244;SDS011;25963;42.694;23.600;2023-04-30T10:04:34;7.50;;;3.85;;
40244;SDS011;25963;42.694;23.600;2023-04-30T10:07:05;6.38;;;4.03;;
40244;SDS011;25963;42.694;23.600;2023-04-30T10:10:19;6.70;;;5.07;;
40244;SDS011;25963;42.694;23.600;2023-04-30T10:12:31;6.18;;;4.70;;
40244;SDS011;25963;42.694;23.600;2023-04-30T10:15:05;9.70;;;1.80;;
40244;SDS011;25963;42.694;23.600;2023-04-30T10:17:37;4.68;;;2.28;;
40244;SDS011;25963;42.694;23.600;2023-04-30T10:20:08;5.53;;;2.47;;
40244;SDS011;25963;42.694;23.600;2023-04-30T10:22:35;8.60;;;5.78;;
40244;SDS011;25963;42.694;23.600;2023-04-30T10:25:01;8.60;;;5.82;;
40244;SDS011;25963;42.694;23.600;2023-04-30T10:27:28;8.65;;;6.57;;
40244;SDS011;25963;42.694;23.600;2023-04-30T10:29:53;8.20;;;6.25;;
40244;SDS011;25963;42.694;23.600;2023-04-30T10:32:19;8.23;;;6.00;;
40244;SDS011;25963;42.694;23.600;2023-04-30T10:34:54;7.00;;;5.88;;
40244;SDS011;25963;42.694;23.600;2023-04-30T10:38:17;8.93;;;6.50;;
40244;SDS011;25963;42.694;23.600;2023-04-30T10:40:35;5.88;;;5.28;;
40244;SDS011;25963;42.694;23.600;2023-04-30T10:43:01;4.95;;;4.53;;
40244;SDS011;25963;42.694;23.600;2023-04-30T10:45:36;6.43;;;4.10;;
40244;SDS011;25963;42.694;23.600;2023-04-30T10:48:02;2.80;;;2.58;;
40244;SDS011;25963;42.694;23.600;2023-04-30T10:50:29;3.47;;;2.38;;
40244;SDS011;25963;42.694;23.600;2023-04-30T10:53:04;2.80;;;2.60;;
40244;SDS011;25963;42.694;23.600;2023-04-30T10:55:30;2.45;;;2.20;;
40244;SDS011;25963;42.694;23.600;2023-04-30T10:57:57;10.07;;;5.50;;
40244;SDS011;25963;42.694;23.600;2023-04-30T11:00:26;3.13;;;2.42;;
40244;SDS011;25963;42.694;23.600;2023-04-30T11:03:02;4.68;;;3.25;;
40244;SDS011;25963;42.694;23.600;2023-04-30T11:05:37;7.47;;;6.50;;
40244;SDS011;25963;42.694;23.600;2023-04-30T11:08:04;4.00;;;3.58;;
40244;SDS011;25963;42.694;23.600;2023-04-30T11:10:33;2.90;;;2.53;;
40244;SDS011;25963;42.694;23.600;2023-04-30T11:13:02;2.95;;;2.40;;
40244;SDS011;25963;42.694;23.600;2023-04-30T11:15:47;3.73;;;3.37;;
40244;SDS011;25963;42.694;23.600;2023-04-30T11:18:13;5.22;;;3.97;;
40244;SDS011;25963;42.694;23.600;2023-04-30T11:20:40;7.75;;;6.55;;
40244;SDS011;25963;42.694;23.600;2023-04-30T11:25:45;6.38;;;4.97;;
40244;SDS011;25963;42.694;23.600;2023-04-30T11:28:17;8.23;;;5.40;;
40244;SDS011;25963;42.694;23.600;2023-04-30T11:30:51;9.68;;;6.88;;
40244;SDS011;25963;42.694;23.600;2023-04-30T11:33:25;23.45;;;14.40;;
40244;SDS011;25963;42.694;23.600;2023-04-30T11:35:52;14.95;;;10.55;;
40244;SDS011;25963;42.694;23.600;2023-04-30T11:38:20;10.35;;;7.93;;
40244;SDS011;25963;42.694;23.600;2023-04-30T11:40:47;8.15;;;5.93;;
40244;SDS011;25963;42.694;23.600;2023-04-30T11:43:20;5.18;;;4.53;;
40244;SDS011;25963;42.694;23.600;2023-04-30T11:48:38;7.60;;;6.50;;
40244;SDS011;25963;42.694;23.600;2023-04-30T11:53:44;5.20;;;3.22;;
40244;SDS011;25963;42.694;23.600;2023-04-30T11:56:11;3.15;;;2.63;;
40244;SDS011;25963;42.694;23.600;2023-04-30T11:58:37;7.43;;;2.30;;
40244;SDS011;25963;42.694;23.600;2023-04-30T12:01:06;2.42;;;2.22;;
40244;SDS011;25963;42.694;23.600;2023-04-30T12:03:39;6.13;;;3.00;;
40244;SDS011;25963;42.694;23.600;2023-04-30T12:06:10;4.22;;;2.70;;
40244;SDS011;25963;42.694;23.600;2023-04-30T12:08:36;7.97;;;5.35;;
40244;SDS011;25963;42.694;23.600;2023-04-30T12:11:02;4.90;;;2.80;;
40244;SDS011;25963;42.694;23.600;2023-04-30T12:13:31;5.20;;;2.70;;
40244;SDS011;25963;42.694;23.600;2023-04-30T12:15:58;2.92;;;2.42;;
40244;SDS011;25963;42.694;23.600;2023-04-30T12:18:24;3.10;;;2.80;;
40244;SDS011;25963;42.694;23.600;2023-04-30T12:20:50;3.20;;;2.40;;
40244;SDS011;25963;42.694;23.600;2023-04-30T12:23:16;2.50;;;2.10;;
40244;SDS011;25963;42.694;23.600;2023-04-30T12:25:42;4.78;;;2.10;;
40244;SDS011;25963;42.694;23.600;2023-04-30T12:28:11;5.35;;;3.20;;
40244;SDS011;25963;42.694;23.600;2023-04-30T12:30:37;4.55;;;2.40;;
40244;SDS011;25963;42.694;23.600;2023-04-30T12:33:03;4.82;;;3.05;;
40244;SDS011;25963;42.694;23.600;2023-04-30T12:35:29;5.75;;;3.67;;
40244;SDS011;25963;42.694;23.600;2023-04-30T12:38:03;5.20;;;3.63;;
40244;SDS011;25963;42.694;23.600;2023-04-30T12:40:30;3.85;;;3.33;;
40244;SDS011;25963;42.694;23.600;2023-04-30T12:43:00;5.20;;;2.60;;
40244;SDS011;25963;42.694;23.600;2023-04-30T12:45:43;2.63;;;1.93;;
40244;SDS011;25963;42.694;23.600;2023-04-30T12:48:10;6.80;;;2.85;;
40244;SDS011;25963;42.694;23.600;2023-04-30T12:50:36;4.88;;;2.25;;
40244;SDS011;25963;42.694;23.600;2023-04-30T12:53:05;3.28;;;2.50;;
40244;SDS011;25963;42.694;23.600;2023-04-30T12:55:33;2.55;;;2.15;;
40244;SDS011;25963;42.694;23.600;2023-04-30T13:03:10;2.38;;;2.13;;
40244;SDS011;25963;42.694;23.600;2023-04-30T13:05:36;3.65;;;2.45;;
40244;SDS011;25963;42.694;23.600;2023-04-30T13:08:02;4.55;;;2.92;;
40244;SDS011;25963;42.694;23.600;2023-04-30T13:10:30;6.13;;;2.28;;
40244;SDS011;25963;42.694;23.600;2023-04-30T13:12:56;2.47;;;1.60;;
40244;SDS011;25963;42.694;23.600;2023-04-30T13:15:22;2.78;;;2.15;;
40244;SDS011;25963;42.694;23.600;2023-04-30T13:17:47;5.20;;;2.05;;
40244;SDS011;25963;42.694;23.600;2023-04-30T13:20:14;1.75;;;1.40;;
40244;SDS011;25963;42.694;23.600;2023-04-30T13:22:40;3.50;;;1.85;;
40244;SDS011;25963;42.694;23.600;2023-04-30T13:25:05;3.55;;;2.13;;
40244;SDS011;25963;42.694;23.600;2023-04-30T13:27:31;2.25;;;1.50;;
40244;SDS011;25963;42.694;23.600;2023-04-30T13:29:57;3.22;;;1.48;;
40244;SDS011;25963;42.694;23.600;2023-04-30T13:32:23;1.73;;;1.48;;
40244;SDS011;25963;42.694;23.600;2023-04-30T13:34:49;1.63;;;1.20;;
40244;SDS011;25963;42.694;23.600;2023-04-30T13:37:16;2.67;;;1.23;;
40244;SDS011;25963;42.694;23.600;2023-04-30T13:39:42;1.73;;;1.48;;
40244;SDS011;25963;42.694;23.600;2023-04-30T13:42:07;1.25;;;0.85;;
40244;SDS011;25963;42.694;23.600;2023-04-30T13:44:33;4.15;;;1.58;;
40244;SDS011;25963;42.694;23.600;2023-04-30T13:46:59;2.08;;;1.30;;
40244;SDS011;25963;42.694;23.600;2023-04-30T13:49:25;2.65;;;1.42;;
40244;SDS011;25963;42.694;23.600;2023-04-30T13:51:50;1.65;;;1.33;;
40244;SDS011;25963;42.694;23.600;2023-04-30T13:54:16;1.60;;;1.50;;
40244;SDS011;25963;42.694;23.600;2023-04-30T13:56:41;1.60;;;1.50;;
40244;SDS011;25963;42.694;23.600;2023-04-30T13:59:07;2.42;;;1.50;;
40244;SDS011;25963;42.694;23.600;2023-04-30T14:01:32;2.35;;;1.88;;
40244;SDS011;25963;42.694;23.600;2023-04-30T14:03:58;2.55;;;1.95;;
40244;SDS011;25963;42.694;23.600;2023-04-30T14:06:23;6.45;;;3.25;;
40244;SDS011;25963;42.694;23.600;2023-04-30T14:08:49;6.05;;;2.53;;
40244;SDS011;25963;42.694;23.600;2023-04-30T14:11:14;2.90;;;1.58;;
40244;SDS011;25963;42.694;23.600;2023-04-30T14:13:40;7.15;;;3.50;;
40244;SDS011;25963;42.694;23.600;2023-04-30T14:16:05;3.50;;;2.15;;
40244;SDS011;25963;42.694;23.600;2023-04-30T14:18:31;3.58;;;2.28;;
40244;SDS011;25963;42.694;23.600;2023-04-30T14:20:56;3.65;;;1.63;;
40244;SDS011;25963;42.694;23.600;2023-04-30T14:23:22;4.45;;;2.78;;
40244;SDS011;25963;42.694;23.600;2023-04-30T14:25:47;4.38;;;2.67;;
40244;SDS011;25963;42.694;23.600;2023-04-30T14:28:13;1.90;;;1.50;;
40244;SDS011;25963;42.694;23.600;2023-04-30T14:30:38;2.58;;;1.58;;
40244;SDS011;25963;42.694;23.600;2023-04-30T14:33:04;8.55;;;5.65;;
40244;SDS011;25963;42.694;23.600;2023-04-30T14:35:29;3.38;;;2.05;;
40244;SDS011;25963;42.694;23.600;2023-04-30T14:37:55;1.67;;;1.58;;
40244;SDS011;25963;42.694;23.600;2023-04-30T14:40:20;2.78;;;2.40;;
40244;SDS011;25963;42.694;23.600;2023-04-30T14:42:45;2.17;;;1.95;;
40244;SDS011;25963;42.694;23.600;2023-04-30T14:45:11;4.47;;;2.30;;
40244;SDS011;25963;42.694;23.600;2023-04-30T14:47:36;2.97;;;1.85;;
40244;SDS011;25963;42.694;23.600;2023-04-30T14:50:02;5.82;;;2.75;;
40244;SDS011;25963;42.694;23.600;2023-04-30T14:52:28;1.50;;;1.40;;
40244;SDS011;25963;42.694;23.600;2023-04-30T14:54:53;2.03;;;1.42;;
40244;SDS011;25963;42.694;23.600;2023-04-30T14:57:20;2.38;;;1.60;;
40244;SDS011;25963;42.694;23.600;2023-04-30T14:59:45;4.88;;;2.00;;
40244;SDS011;25963;42.694;23.600;2023-04-30T15:02:10;2.47;;;1.80;;